sensor_id;sensor_type;location;lat;lon;timestamp;P1;durP1;ratioP1;P2;durP2;ratioP2
76292;SDS011;67256;51.154;4.164;2023-04-03T00:01:15;8.35;;;3.38;;
76292;SDS011;67256;51.154;4.164;2023-04-03T00:03:42;9.95;;;4.70;;
76292;SDS011;67256;51.154;4.164;2023-04-03T00:06:08;9.85;;;4.05;;
76292;SDS011;67256;51.154;4.164;2023-04-03T00:08:36;6.63;;;3.47;;
76292;SDS011;67256;51.154;4.164;2023-04-03T00:11:04;9.05;;;4.50;;
76292;SDS011;67256;51.154;4.164;2023-04-03T00:13:31;4.55;;;3.92;;
76292;SDS011;67256;51.154;4.164;2023-04-03T00:15:58;7.53;;;3.85;;
76292;SDS011;67256;51.154;4.164;2023-04-03T00:18:24;5.75;;;3.70;;
76292;SDS011;67256;51.154;4.164;2023-04-03T00:20:50;10.05;;;4.85;;
76292;SDS011;67256;51.154;4.164;2023-04-03T00:23:16;6.55;;;4.03;;
76292;SDS011;67256;51.154;4.164;2023-04-03T00:25:43;6.45;;;4.03;;
76292;SDS011;67256;51.154;4.164;2023-04-03T00:28:09;6.15;;;4.38;;
76292;SDS011;67256;51.154;4.164;2023-04-03T00:30:35;6.70;;;4.18;;
76292;SDS011;67256;51.154;4.164;2023-04-03T00:33:02;10.63;;;3.63;;
76292;SDS011;67256;51.154;4.164;2023-04-03T00:35:28;6.65;;;3.65;;
76292;SDS011;67256;51.154;4.164;2023-04-03T00:37:55;6.22;;;4.25;;
76292;SDS011;67256;51.154;4.164;2023-04-03T00:40:25;5.75;;;3.55;;
76292;SDS011;67256;51.154;4.164;2023-04-03T00:42:55;7.20;;;3.78;;
76292;SDS011;67256;51.154;4.164;2023-04-03T00:45:25;6.65;;;3.78;;
76292;SDS011;67256;51.154;4.164;2023-04-03T00:47:54;10.60;;;4.20;;
76292;SDS011;67256;51.154;4.164;2023-04-03T00:50:20;6.95;;;4.00;;
76292;SDS011;67256;51.154;4.164;2023-04-03T00:52:46;15.20;;;4.45;;
76292;SDS011;67256;51.154;4.164;2023-04-03T00:55:14;6.70;;;4.13;;
76292;SDS011;67256;51.154;4.164;2023-04-03T00:57:41;9.18;;;4.70;;
76292;SDS011;67256;51.154;4.164;2023-04-03T01:00:09;8.32;;;4.53;;
76292;SDS011;67256;51.154;4.164;2023-04-03T01:02:37;11.98;;;4.38;;
76292;SDS011;67256;51.154;4.164;2023-04-03T01:05:06;10.82;;;4.70;;
76292;SDS011;67256;51.154;4.164;2023-04-03T01:07:33;8.98;;;4.32;;
76292;SDS011;67256;51.154;4.164;2023-04-03T01:10:03;9.18;;;4.80;;
76292;SDS011;67256;51.154;4.164;2023-04-03T01:12:32;6.63;;;4.25;;
76292;SDS011;67256;51.154;4.164;2023-04-03T01:15:10;11.63;;;4.82;;
76292;SDS011;67256;51.154;4.164;2023-04-03T01:25:21;7.85;;;4.38;;
76292;SDS011;67256;51.154;4.164;2023-04-03T01:27:47;8.50;;;5.15;;
76292;SDS011;67256;51.154;4.164;2023-04-03T01:30:13;8.23;;;4.95;;
76292;SDS011;67256;51.154;4.164;2023-04-03T01:32:42;8.93;;;4.90;;
76292;SDS011;67256;51.154;4.164;2023-04-03T01:35:08;9.35;;;5.63;;
76292;SDS011;67256;51.154;4.164;2023-04-03T01:37:35;8.70;;;5.30;;
76292;SDS011;67256;51.154;4.164;2023-04-03T01:40:00;8.10;;;4.47;;
76292;SDS011;67256;51.154;4.164;2023-04-03T01:42:27;8.63;;;4.88;;
76292;SDS011;67256;51.154;4.164;2023-04-03T01:44:53;8.65;;;5.25;;
76292;SDS011;67256;51.154;4.164;2023-04-03T01:47:19;10.13;;;5.03;;
76292;SDS011;67256;51.154;4.164;2023-04-03T01:49:46;6.03;;;4.07;;
76292;SDS011;67256;51.154;4.164;2023-04-03T01:52:11;10.60;;;5.30;;
76292;SDS011;67256;51.154;4.164;2023-04-03T01:54:37;11.18;;;5.03;;
76292;SDS011;67256;51.154;4.164;2023-04-03T01:57:04;8.95;;;4.88;;
76292;SDS011;67256;51.154;4.164;2023-04-03T01:59:30;7.40;;;4.75;;
76292;SDS011;67256;51.154;4.164;2023-04-03T02:01:56;10.75;;;5.72;;
76292;SDS011;67256;51.154;4.164;2023-04-03T02:04:22;8.88;;;4.97;;
76292;SDS011;67256;51.154;4.164;2023-04-03T02:06:48;8.93;;;4.80;;
76292;SDS011;67256;51.154;4.164;2023-04-03T02:09:14;8.18;;;4.97;;
76292;SDS011;67256;51.154;4.164;2023-04-03T02:11:40;7.00;;;4.20;;
76292;SDS011;67256;51.154;4.164;2023-04-03T02:14:06;10.38;;;4.72;;
76292;SDS011;67256;51.154;4.164;2023-04-03T02:16:32;7.32;;;4.78;;
76292;SDS011;67256;51.154;4.164;2023-04-03T02:18:58;11.15;;;5.05;;
76292;SDS011;67256;51.154;4.164;2023-04-03T02:21:24;9.10;;;4.80;;
76292;SDS011;67256;51.154;4.164;2023-04-03T02:23:50;7.85;;;4.43;;
76292;SDS011;67256;51.154;4.164;2023-04-03T02:26:17;10.70;;;5.43;;
76292;SDS011;67256;51.154;4.164;2023-04-03T02:28:43;9.05;;;4.90;;
76292;SDS011;67256;51.154;4.164;2023-04-03T02:31:09;9.88;;;4.70;;
76292;SDS011;67256;51.154;4.164;2023-04-03T02:33:36;8.95;;;4.30;;
76292;SDS011;67256;51.154;4.164;2023-04-03T02:36:04;7.95;;;4.88;;
76292;SDS011;67256;51.154;4.164;2023-04-03T02:38:32;7.85;;;4.38;;
76292;SDS011;67256;51.154;4.164;2023-04-03T02:41:02;7.90;;;4.68;;
76292;SDS011;67256;51.154;4.164;2023-04-03T02:43:30;8.90;;;6.00;;
76292;SDS011;67256;51.154;4.164;2023-04-03T02:45:56;9.48;;;4.97;;
76292;SDS011;67256;51.154;4.164;2023-04-03T02:48:23;11.73;;;5.10;;
76292;SDS011;67256;51.154;4.164;2023-04-03T02:50:50;7.85;;;5.00;;
76292;SDS011;67256;51.154;4.164;2023-04-03T02:53:16;8.63;;;4.63;;
76292;SDS011;67256;51.154;4.164;2023-04-03T02:55:43;10.55;;;5.00;;
76292;SDS011;67256;51.154;4.164;2023-04-03T02:58:10;11.73;;;5.72;;
76292;SDS011;67256;51.154;4.164;2023-04-03T03:00:36;7.28;;;4.38;;
76292;SDS011;67256;51.154;4.164;2023-04-03T03:03:02;6.88;;;4.15;;
76292;SDS011;67256;51.154;4.164;2023-04-03T03:05:29;18.58;;;5.40;;
76292;SDS011;67256;51.154;4.164;2023-04-03T03:07:55;8.38;;;4.72;;
76292;SDS011;67256;51.154;4.164;2023-04-03T03:10:21;9.23;;;4.80;;
76292;SDS011;67256;51.154;4.164;2023-04-03T03:12:48;8.85;;;5.30;;
76292;SDS011;67256;51.154;4.164;2023-04-03T03:15:14;7.25;;;4.97;;
76292;SDS011;67256;51.154;4.164;2023-04-03T03:17:42;11.55;;;4.80;;
76292;SDS011;67256;51.154;4.164;2023-04-03T03:20:08;8.85;;;4.55;;
76292;SDS011;67256;51.154;4.164;2023-04-03T03:22:35;6.10;;;4.47;;
76292;SDS011;67256;51.154;4.164;2023-04-03T03:25:01;11.05;;;5.55;;
76292;SDS011;67256;51.154;4.164;2023-04-03T03:27:28;7.13;;;4.70;;
76292;SDS011;67256;51.154;4.164;2023-04-03T03:29:54;11.15;;;4.57;;
76292;SDS011;67256;51.154;4.164;2023-04-03T03:32:19;14.13;;;5.43;;
76292;SDS011;67256;51.154;4.164;2023-04-03T03:34:45;9.43;;;5.35;;
76292;SDS011;67256;51.154;4.164;2023-04-03T03:37:11;9.48;;;5.40;;
76292;SDS011;67256;51.154;4.164;2023-04-03T03:39:37;7.03;;;4.53;;
76292;SDS011;67256;51.154;4.164;2023-04-03T03:42:02;10.25;;;5.13;;
76292;SDS011;67256;51.154;4.164;2023-04-03T03:44:28;7.88;;;4.88;;
76292;SDS011;67256;51.154;4.164;2023-04-03T03:46:55;10.90;;;5.45;;
76292;SDS011;67256;51.154;4.164;2023-04-03T03:49:21;8.05;;;5.10;;
76292;SDS011;67256;51.154;4.164;2023-04-03T03:51:47;8.60;;;4.82;;
76292;SDS011;67256;51.154;4.164;2023-04-03T03:54:15;7.45;;;5.38;;
76292;SDS011;67256;51.154;4.164;2023-04-03T03:56:41;7.78;;;5.40;;
76292;SDS011;67256;51.154;4.164;2023-04-03T03:59:07;7.45;;;5.40;;
76292;SDS011;67256;51.154;4.164;2023-04-03T04:01:33;9.02;;;4.60;;
76292;SDS011;67256;51.154;4.164;2023-04-03T04:03:59;8.63;;;5.10;;
76292;SDS011;67256;51.154;4.164;2023-04-03T04:06:24;7.95;;;5.10;;
76292;SDS011;67256;51.154;4.164;2023-04-03T04:08:51;8.27;;;4.88;;
76292;SDS011;67256;51.154;4.164;2023-04-03T04:11:16;9.27;;;4.72;;
76292;SDS011;67256;51.154;4.164;2023-04-03T04:13:42;10.77;;;7.22;;
76292;SDS011;67256;51.154;4.164;2023-04-03T04:16:08;6.97;;;4.97;;
76292;SDS011;67256;51.154;4.164;2023-04-03T04:18:34;9.05;;;5.25;;
76292;SDS011;67256;51.154;4.164;2023-04-03T04:21:00;6.45;;;4.40;;
76292;SDS011;67256;51.154;4.164;2023-04-03T04:23:26;13.45;;;6.68;;
76292;SDS011;67256;51.154;4.164;2023-04-03T04:25:53;8.63;;;6.25;;
76292;SDS011;67256;51.154;4.164;2023-04-03T04:28:19;14.60;;;6.65;;
76292;SDS011;67256;51.154;4.164;2023-04-03T04:30:44;8.95;;;6.63;;
76292;SDS011;67256;51.154;4.164;2023-04-03T04:33:10;10.55;;;6.95;;
76292;SDS011;67256;51.154;4.164;2023-04-03T04:35:36;9.10;;;5.90;;
76292;SDS011;67256;51.154;4.164;2023-04-03T04:38:03;14.73;;;6.63;;
76292;SDS011;67256;51.154;4.164;2023-04-03T04:40:29;13.45;;;6.50;;
76292;SDS011;67256;51.154;4.164;2023-04-03T04:42:56;12.30;;;6.10;;
76292;SDS011;67256;51.154;4.164;2023-04-03T04:45:22;10.23;;;6.55;;
76292;SDS011;67256;51.154;4.164;2023-04-03T04:47:49;10.02;;;6.80;;
76292;SDS011;67256;51.154;4.164;2023-04-03T04:50:17;10.55;;;6.50;;
76292;SDS011;67256;51.154;4.164;2023-04-03T04:52:44;10.80;;;6.72;;
76292;SDS011;67256;51.154;4.164;2023-04-03T04:55:10;11.45;;;7.18;;
76292;SDS011;67256;51.154;4.164;2023-04-03T04:57:37;13.80;;;7.72;;
76292;SDS011;67256;51.154;4.164;2023-04-03T05:00:04;11.18;;;7.15;;
76292;SDS011;67256;51.154;4.164;2023-04-03T05:02:30;9.55;;;7.10;;
76292;SDS011;67256;51.154;4.164;2023-04-03T05:04:56;12.70;;;7.32;;
76292;SDS011;67256;51.154;4.164;2023-04-03T05:07:22;10.40;;;7.05;;
76292;SDS011;67256;51.154;4.164;2023-04-03T05:09:49;11.77;;;7.55;;
76292;SDS011;67256;51.154;4.164;2023-04-03T05:12:15;9.25;;;7.05;;
76292;SDS011;67256;51.154;4.164;2023-04-03T05:14:42;10.68;;;7.90;;
76292;SDS011;67256;51.154;4.164;2023-04-03T05:17:08;11.10;;;7.80;;
76292;SDS011;67256;51.154;4.164;2023-04-03T05:19:34;13.63;;;7.32;;
76292;SDS011;67256;51.154;4.164;2023-04-03T05:22:00;16.80;;;8.13;;
76292;SDS011;67256;51.154;4.164;2023-04-03T05:24:26;10.13;;;6.88;;
76292;SDS011;67256;51.154;4.164;2023-04-03T05:26:51;12.65;;;6.90;;
76292;SDS011;67256;51.154;4.164;2023-04-03T05:29:17;17.13;;;8.43;;
76292;SDS011;67256;51.154;4.164;2023-04-03T05:31:43;16.75;;;9.57;;
76292;SDS011;67256;51.154;4.164;2023-04-03T05:34:09;12.50;;;8.10;;
76292;SDS011;67256;51.154;4.164;2023-04-03T05:36:35;12.50;;;7.80;;
76292;SDS011;67256;51.154;4.164;2023-04-03T05:39:01;9.57;;;6.75;;
76292;SDS011;67256;51.154;4.164;2023-04-03T05:41:28;13.35;;;7.10;;
76292;SDS011;67256;51.154;4.164;2023-04-03T05:43:54;15.88;;;7.68;;
76292;SDS011;67256;51.154;4.164;2023-04-03T05:46:21;11.95;;;8.23;;
76292;SDS011;67256;51.154;4.164;2023-04-03T05:48:47;14.23;;;7.43;;
76292;SDS011;67256;51.154;4.164;2023-04-03T05:51:14;12.05;;;6.97;;
76292;SDS011;67256;51.154;4.164;2023-04-03T05:53:44;10.27;;;7.07;;
76292;SDS011;67256;51.154;4.164;2023-04-03T05:56:11;9.93;;;7.80;;
76292;SDS011;67256;51.154;4.164;2023-04-03T05:58:38;10.32;;;7.15;;
76292;SDS011;67256;51.154;4.164;2023-04-03T06:01:03;15.50;;;7.85;;
76292;SDS011;67256;51.154;4.164;2023-04-03T06:03:30;12.15;;;7.63;;
76292;SDS011;67256;51.154;4.164;2023-04-03T06:05:56;13.32;;;7.10;;
76292;SDS011;67256;51.154;4.164;2023-04-03T06:08:22;20.08;;;7.80;;
76292;SDS011;67256;51.154;4.164;2023-04-03T06:10:49;13.90;;;7.10;;
76292;SDS011;67256;51.154;4.164;2023-04-03T06:13:16;11.50;;;7.25;;
76292;SDS011;67256;51.154;4.164;2023-04-03T06:15:42;12.75;;;6.97;;
76292;SDS011;67256;51.154;4.164;2023-04-03T06:18:08;15.88;;;7.65;;
76292;SDS011;67256;51.154;4.164;2023-04-03T06:20:34;10.70;;;7.50;;
76292;SDS011;67256;51.154;4.164;2023-04-03T06:23:00;13.13;;;7.93;;
76292;SDS011;67256;51.154;4.164;2023-04-03T06:25:26;10.75;;;7.10;;
76292;SDS011;67256;51.154;4.164;2023-04-03T06:27:52;15.23;;;6.82;;
76292;SDS011;67256;51.154;4.164;2023-04-03T06:30:20;13.77;;;7.47;;
76292;SDS011;67256;51.154;4.164;2023-04-03T06:32:47;11.43;;;7.40;;
76292;SDS011;67256;51.154;4.164;2023-04-03T06:35:13;13.73;;;6.93;;
76292;SDS011;67256;51.154;4.164;2023-04-03T06:37:39;12.77;;;6.88;;
76292;SDS011;67256;51.154;4.164;2023-04-03T06:40:05;18.65;;;7.15;;
76292;SDS011;67256;51.154;4.164;2023-04-03T06:42:32;14.27;;;8.02;;
76292;SDS011;67256;51.154;4.164;2023-04-03T06:44:58;17.55;;;7.95;;
76292;SDS011;67256;51.154;4.164;2023-04-03T06:47:23;16.65;;;8.50;;
76292;SDS011;67256;51.154;4.164;2023-04-03T06:49:50;12.30;;;8.80;;
76292;SDS011;67256;51.154;4.164;2023-04-03T06:52:15;12.93;;;7.47;;
76292;SDS011;67256;51.154;4.164;2023-04-03T06:54:41;12.10;;;6.88;;
76292;SDS011;67256;51.154;4.164;2023-04-03T06:57:07;13.15;;;7.38;;
76292;SDS011;67256;51.154;4.164;2023-04-03T06:59:33;13.40;;;7.28;;
76292;SDS011;67256;51.154;4.164;2023-04-03T07:02:00;12.48;;;7.05;;
76292;SDS011;67256;51.154;4.164;2023-04-03T07:04:26;12.30;;;6.80;;
76292;SDS011;67256;51.154;4.164;2023-04-03T07:06:52;10.52;;;7.75;;
76292;SDS011;67256;51.154;4.164;2023-04-03T07:09:18;10.43;;;7.22;;
76292;SDS011;67256;51.154;4.164;2023-04-03T07:11:44;20.58;;;8.10;;
76292;SDS011;67256;51.154;4.164;2023-04-03T07:14:10;10.68;;;6.60;;
76292;SDS011;67256;51.154;4.164;2023-04-03T07:16:37;11.32;;;6.97;;
76292;SDS011;67256;51.154;4.164;2023-04-03T07:19:04;14.00;;;7.55;;
76292;SDS011;67256;51.154;4.164;2023-04-03T07:21:30;15.20;;;7.95;;
76292;SDS011;67256;51.154;4.164;2023-04-03T07:23:55;10.45;;;6.57;;
76292;SDS011;67256;51.154;4.164;2023-04-03T07:26:21;8.57;;;5.95;;
76292;SDS011;67256;51.154;4.164;2023-04-03T07:28:48;10.77;;;6.35;;
76292;SDS011;67256;51.154;4.164;2023-04-03T07:31:15;12.05;;;6.45;;
76292;SDS011;67256;51.154;4.164;2023-04-03T07:33:42;6.63;;;4.97;;
76292;SDS011;67256;51.154;4.164;2023-04-03T07:36:09;12.13;;;6.03;;
76292;SDS011;67256;51.154;4.164;2023-04-03T07:38:39;7.68;;;5.40;;
76292;SDS011;67256;51.154;4.164;2023-04-03T07:41:05;9.93;;;5.25;;
76292;SDS011;67256;51.154;4.164;2023-04-03T07:43:31;11.60;;;5.05;;
76292;SDS011;67256;51.154;4.164;2023-04-03T07:45:59;9.18;;;4.70;;
76292;SDS011;67256;51.154;4.164;2023-04-03T07:48:26;13.52;;;5.60;;
76292;SDS011;67256;51.154;4.164;2023-04-03T07:50:52;8.80;;;5.05;;
76292;SDS011;67256;51.154;4.164;2023-04-03T07:53:18;11.23;;;5.20;;
76292;SDS011;67256;51.154;4.164;2023-04-03T07:55:48;9.77;;;5.82;;
76292;SDS011;67256;51.154;4.164;2023-04-03T07:58:17;10.02;;;5.43;;
76292;SDS011;67256;51.154;4.164;2023-04-03T08:00:43;13.98;;;5.75;;
76292;SDS011;67256;51.154;4.164;2023-04-03T08:03:10;9.30;;;5.55;;
76292;SDS011;67256;51.154;4.164;2023-04-03T08:05:43;15.27;;;6.88;;
76292;SDS011;67256;51.154;4.164;2023-04-03T08:08:11;11.55;;;5.65;;
76292;SDS011;67256;51.154;4.164;2023-04-03T08:10:39;12.38;;;7.03;;
76292;SDS011;67256;51.154;4.164;2023-04-03T08:13:05;16.75;;;7.40;;
76292;SDS011;67256;51.154;4.164;2023-04-03T08:15:31;12.98;;;5.72;;
76292;SDS011;67256;51.154;4.164;2023-04-03T08:17:58;11.15;;;5.07;;
76292;SDS011;67256;51.154;4.164;2023-04-03T08:20:24;9.85;;;5.70;;
76292;SDS011;67256;51.154;4.164;2023-04-03T08:22:50;14.23;;;5.55;;
76292;SDS011;67256;51.154;4.164;2023-04-03T08:25:17;13.10;;;5.65;;
76292;SDS011;67256;51.154;4.164;2023-04-03T08:27:43;11.77;;;6.15;;
76292;SDS011;67256;51.154;4.164;2023-04-03T08:30:09;9.85;;;5.13;;
76292;SDS011;67256;51.154;4.164;2023-04-03T08:32:36;10.93;;;4.15;;
76292;SDS011;67256;51.154;4.164;2023-04-03T08:35:02;12.00;;;4.45;;
76292;SDS011;67256;51.154;4.164;2023-04-03T08:37:29;10.15;;;4.38;;
76292;SDS011;67256;51.154;4.164;2023-04-03T08:39:55;11.07;;;4.13;;
76292;SDS011;67256;51.154;4.164;2023-04-03T08:50:19;9.48;;;4.88;;
76292;SDS011;67256;51.154;4.164;2023-04-03T08:52:49;7.65;;;4.32;;
76292;SDS011;67256;51.154;4.164;2023-04-03T08:55:27;9.88;;;4.53;;
76292;SDS011;67256;51.154;4.164;2023-04-03T08:58:06;9.00;;;4.00;;
76292;SDS011;67256;51.154;4.164;2023-04-03T09:03:15;9.07;;;3.30;;
76292;SDS011;67256;51.154;4.164;2023-04-03T09:08:33;9.25;;;3.20;;
76292;SDS011;67256;51.154;4.164;2023-04-03T09:11:16;8.52;;;3.25;;
76292;SDS011;67256;51.154;4.164;2023-04-03T09:14:07;6.82;;;3.30;;
76292;SDS011;67256;51.154;4.164;2023-04-03T09:19:21;10.00;;;3.83;;
76292;SDS011;67256;51.154;4.164;2023-04-03T09:21:48;7.50;;;3.58;;
76292;SDS011;67256;51.154;4.164;2023-04-03T09:24:14;7.90;;;2.53;;
76292;SDS011;67256;51.154;4.164;2023-04-03T09:29:20;10.45;;;2.55;;
76292;SDS011;67256;51.154;4.164;2023-04-03T09:31:49;8.55;;;2.35;;
76292;SDS011;67256;51.154;4.164;2023-04-03T09:34:36;8.75;;;2.58;;
76292;SDS011;67256;51.154;4.164;2023-04-03T09:37:04;3.90;;;1.60;;
76292;SDS011;67256;51.154;4.164;2023-04-03T09:39:50;9.15;;;2.70;;
76292;SDS011;67256;51.154;4.164;2023-04-03T09:42:21;5.57;;;2.13;;
76292;SDS011;67256;51.154;4.164;2023-04-03T09:44:58;5.38;;;1.95;;
76292;SDS011;67256;51.154;4.164;2023-04-03T09:47:33;5.85;;;1.90;;
76292;SDS011;67256;51.154;4.164;2023-04-03T09:52:46;7.53;;;2.22;;
76292;SDS011;67256;51.154;4.164;2023-04-03T09:55:14;4.65;;;2.08;;
76292;SDS011;67256;51.154;4.164;2023-04-03T09:57:47;6.00;;;2.30;;
76292;SDS011;67256;51.154;4.164;2023-04-03T10:00:36;5.93;;;2.50;;
76292;SDS011;67256;51.154;4.164;2023-04-03T10:03:01;8.15;;;2.10;;
76292;SDS011;67256;51.154;4.164;2023-04-03T10:05:33;5.57;;;2.05;;
76292;SDS011;67256;51.154;4.164;2023-04-03T10:10:39;4.25;;;1.92;;
76292;SDS011;67256;51.154;4.164;2023-04-03T10:13:19;5.75;;;2.38;;
76292;SDS011;67256;51.154;4.164;2023-04-03T10:16:02;3.67;;;2.15;;
76292;SDS011;67256;51.154;4.164;2023-04-03T10:21:55;8.18;;;1.77;;
76292;SDS011;67256;51.154;4.164;2023-04-03T10:24:06;6.10;;;1.67;;
76292;SDS011;67256;51.154;4.164;2023-04-03T10:34:42;5.28;;;1.70;;
76292;SDS011;67256;51.154;4.164;2023-04-03T10:57:47;8.15;;;1.60;;
76292;SDS011;67256;51.154;4.164;2023-04-03T11:00:15;11.45;;;1.50;;
76292;SDS011;67256;51.154;4.164;2023-04-03T11:03:00;3.78;;;1.92;;
76292;SDS011;67256;51.154;4.164;2023-04-03T11:05:44;4.28;;;1.90;;
76292;SDS011;67256;51.154;4.164;2023-04-03T11:08:33;4.50;;;1.92;;
76292;SDS011;67256;51.154;4.164;2023-04-03T11:11:02;5.60;;;1.70;;
76292;SDS011;67256;51.154;4.164;2023-04-03T11:13:43;5.20;;;1.50;;
76292;SDS011;67256;51.154;4.164;2023-04-03T11:16:10;5.38;;;1.80;;
76292;SDS011;67256;51.154;4.164;2023-04-03T11:18:45;5.82;;;1.80;;
76292;SDS011;67256;51.154;4.164;2023-04-03T11:23:54;5.55;;;1.95;;
76292;SDS011;67256;51.154;4.164;2023-04-03T11:26:25;5.07;;;1.95;;
76292;SDS011;67256;51.154;4.164;2023-04-03T11:29:00;3.92;;;1.30;;
76292;SDS011;67256;51.154;4.164;2023-04-03T11:34:21;5.38;;;1.77;;
76292;SDS011;67256;51.154;4.164;2023-04-03T11:36:57;7.32;;;1.50;;
76292;SDS011;67256;51.154;4.164;2023-04-03T11:39:26;4.07;;;1.73;;
76292;SDS011;67256;51.154;4.164;2023-04-03T11:42:22;4.18;;;1.65;;
76292;SDS011;67256;51.154;4.164;2023-04-03T11:44:52;2.53;;;1.40;;
76292;SDS011;67256;51.154;4.164;2023-04-03T11:47:55;2.67;;;1.50;;
76292;SDS011;67256;51.154;4.164;2023-04-03T11:55:42;3.80;;;1.48;;
76292;SDS011;67256;51.154;4.164;2023-04-03T12:05:50;4.15;;;1.48;;
76292;SDS011;67256;51.154;4.164;2023-04-03T12:08:27;5.85;;;1.50;;
76292;SDS011;67256;51.154;4.164;2023-04-03T12:21:15;3.15;;;1.20;;
76292;SDS011;67256;51.154;4.164;2023-04-03T12:41:56;5.13;;;0.90;;
76292;SDS011;67256;51.154;4.164;2023-04-03T12:44:30;2.30;;;1.00;;
76292;SDS011;67256;51.154;4.164;2023-04-03T12:47:02;3.00;;;0.98;;
76292;SDS011;67256;51.154;4.164;2023-04-03T12:49:54;1.75;;;1.00;;
76292;SDS011;67256;51.154;4.164;2023-04-03T12:54:58;4.75;;;0.90;;
76292;SDS011;67256;51.154;4.164;2023-04-03T12:57:29;3.83;;;1.08;;
76292;SDS011;67256;51.154;4.164;2023-04-03T12:59:56;2.15;;;0.90;;
76292;SDS011;67256;51.154;4.164;2023-04-03T13:04:56;2.40;;;1.08;;
76292;SDS011;67256;51.154;4.164;2023-04-03T13:12:32;7.15;;;1.10;;
76292;SDS011;67256;51.154;4.164;2023-04-03T13:15:00;7.10;;;1.50;;
76292;SDS011;67256;51.154;4.164;2023-04-03T13:17:41;3.85;;;1.30;;
76292;SDS011;67256;51.154;4.164;2023-04-03T13:20:16;2.92;;;1.30;;
76292;SDS011;67256;51.154;4.164;2023-04-03T13:22:49;2.10;;;1.20;;
76292;SDS011;67256;51.154;4.164;2023-04-03T13:25:22;6.50;;;1.80;;
76292;SDS011;67256;51.154;4.164;2023-04-03T13:27:49;1.85;;;1.10;;
76292;SDS011;67256;51.154;4.164;2023-04-03T13:30:35;5.97;;;1.38;;
76292;SDS011;67256;51.154;4.164;2023-04-03T13:33:03;2.83;;;1.15;;
76292;SDS011;67256;51.154;4.164;2023-04-03T13:35:43;3.33;;;1.35;;
76292;SDS011;67256;51.154;4.164;2023-04-03T13:41:03;3.55;;;1.20;;
76292;SDS011;67256;51.154;4.164;2023-04-03T13:43:46;5.78;;;1.15;;
76292;SDS011;67256;51.154;4.164;2023-04-03T13:48:39;3.50;;;1.55;;
76292;SDS011;67256;51.154;4.164;2023-04-03T13:53:47;5.15;;;1.30;;
76292;SDS011;67256;51.154;4.164;2023-04-03T13:56:19;1.83;;;1.02;;
76292;SDS011;67256;51.154;4.164;2023-04-03T13:58:56;3.83;;;1.75;;
76292;SDS011;67256;51.154;4.164;2023-04-03T14:01:23;3.10;;;1.23;;
76292;SDS011;67256;51.154;4.164;2023-04-03T14:03:55;1.77;;;1.10;;
76292;SDS011;67256;51.154;4.164;2023-04-03T14:06:22;3.13;;;1.13;;
76292;SDS011;67256;51.154;4.164;2023-04-03T14:08:49;3.75;;;1.17;;
76292;SDS011;67256;51.154;4.164;2023-04-03T14:11:24;3.50;;;1.17;;
76292;SDS011;67256;51.154;4.164;2023-04-03T14:13:53;4.25;;;1.05;;
76292;SDS011;67256;51.154;4.164;2023-04-03T14:16:23;3.67;;;0.90;;
76292;SDS011;67256;51.154;4.164;2023-04-03T14:21:19;3.47;;;1.27;;
76292;SDS011;67256;51.154;4.164;2023-04-03T14:23:46;2.53;;;1.25;;
76292;SDS011;67256;51.154;4.164;2023-04-03T14:26:22;4.07;;;1.30;;
76292;SDS011;67256;51.154;4.164;2023-04-03T14:28:51;2.97;;;1.02;;
76292;SDS011;67256;51.154;4.164;2023-04-03T14:31:18;5.30;;;1.05;;
76292;SDS011;67256;51.154;4.164;2023-04-03T14:33:45;2.72;;;0.93;;
76292;SDS011;67256;51.154;4.164;2023-04-03T14:36:15;2.28;;;1.30;;
76292;SDS011;67256;51.154;4.164;2023-04-03T14:38:53;2.60;;;1.08;;
76292;SDS011;67256;51.154;4.164;2023-04-03T14:41:21;4.75;;;1.40;;
76292;SDS011;67256;51.154;4.164;2023-04-03T14:43:48;4.28;;;1.10;;
76292;SDS011;67256;51.154;4.164;2023-04-03T14:46:17;2.70;;;1.10;;
76292;SDS011;67256;51.154;4.164;2023-04-03T14:48:50;1.98;;;0.98;;
76292;SDS011;67256;51.154;4.164;2023-04-03T14:51:17;1.60;;;1.10;;
76292;SDS011;67256;51.154;4.164;2023-04-03T14:53:43;2.30;;;1.33;;
76292;SDS011;67256;51.154;4.164;2023-04-03T14:56:18;3.60;;;0.90;;
76292;SDS011;67256;51.154;4.164;2023-04-03T14:59:01;3.70;;;1.05;;
76292;SDS011;67256;51.154;4.164;2023-04-03T15:01:27;2.60;;;1.20;;
76292;SDS011;67256;51.154;4.164;2023-04-03T15:03:53;4.80;;;1.17;;
76292;SDS011;67256;51.154;4.164;2023-04-03T15:06:19;4.38;;;1.55;;
76292;SDS011;67256;51.154;4.164;2023-04-03T15:08:46;1.95;;;1.20;;
76292;SDS011;67256;51.154;4.164;2023-04-03T15:11:13;2.92;;;1.20;;
76292;SDS011;67256;51.154;4.164;2023-04-03T15:13:39;5.35;;;1.00;;
76292;SDS011;67256;51.154;4.164;2023-04-03T15:16:08;3.03;;;0.80;;
76292;SDS011;67256;51.154;4.164;2023-04-03T15:18:47;1.50;;;0.80;;
76292;SDS011;67256;51.154;4.164;2023-04-03T15:21:13;3.58;;;0.90;;
76292;SDS011;67256;51.154;4.164;2023-04-03T15:23:39;6.75;;;1.17;;
76292;SDS011;67256;51.154;4.164;2023-04-03T15:26:05;4.38;;;1.42;;
76292;SDS011;67256;51.154;4.164;2023-04-03T15:28:38;3.47;;;1.30;;
76292;SDS011;67256;51.154;4.164;2023-04-03T15:31:06;4.47;;;1.10;;
76292;SDS011;67256;51.154;4.164;2023-04-03T15:33:33;3.10;;;1.40;;
76292;SDS011;67256;51.154;4.164;2023-04-03T15:36:00;9.27;;;1.45;;
76292;SDS011;67256;51.154;4.164;2023-04-03T15:38:26;3.28;;;1.02;;
76292;SDS011;67256;51.154;4.164;2023-04-03T15:40:53;2.42;;;1.02;;
76292;SDS011;67256;51.154;4.164;2023-04-03T15:43:20;3.80;;;1.10;;
76292;SDS011;67256;51.154;4.164;2023-04-03T15:45:47;3.38;;;1.08;;
76292;SDS011;67256;51.154;4.164;2023-04-03T15:48:14;4.25;;;1.40;;
76292;SDS011;67256;51.154;4.164;2023-04-03T15:50:40;6.60;;;1.42;;
76292;SDS011;67256;51.154;4.164;2023-04-03T15:53:06;4.18;;;1.17;;
76292;SDS011;67256;51.154;4.164;2023-04-03T15:55:33;7.78;;;1.42;;
76292;SDS011;67256;51.154;4.164;2023-04-03T15:58:00;5.43;;;1.13;;
76292;SDS011;67256;51.154;4.164;2023-04-03T16:00:28;3.15;;;1.10;;
76292;SDS011;67256;51.154;4.164;2023-04-03T16:02:58;3.33;;;1.17;;
76292;SDS011;67256;51.154;4.164;2023-04-03T16:05:29;2.85;;;1.08;;
76292;SDS011;67256;51.154;4.164;2023-04-03T16:07:56;3.80;;;1.08;;
76292;SDS011;67256;51.154;4.164;2023-04-03T16:10:25;2.03;;;1.10;;
76292;SDS011;67256;51.154;4.164;2023-04-03T16:12:51;2.20;;;1.05;;
76292;SDS011;67256;51.154;4.164;2023-04-03T16:15:17;4.10;;;1.17;;
76292;SDS011;67256;51.154;4.164;2023-04-03T16:17:42;3.55;;;1.10;;
76292;SDS011;67256;51.154;4.164;2023-04-03T16:20:09;4.68;;;1.30;;
76292;SDS011;67256;51.154;4.164;2023-04-03T16:22:38;5.57;;;1.17;;
76292;SDS011;67256;51.154;4.164;2023-04-03T16:25:05;1.90;;;1.08;;
76292;SDS011;67256;51.154;4.164;2023-04-03T16:27:31;4.80;;;1.20;;
76292;SDS011;67256;51.154;4.164;2023-04-03T16:29:57;3.38;;;1.10;;
76292;SDS011;67256;51.154;4.164;2023-04-03T16:32:24;7.82;;;1.70;;
76292;SDS011;67256;51.154;4.164;2023-04-03T16:34:52;4.47;;;2.00;;
76292;SDS011;67256;51.154;4.164;2023-04-03T16:37:18;4.20;;;1.73;;
76292;SDS011;67256;51.154;4.164;2023-04-03T16:39:44;4.45;;;1.40;;
76292;SDS011;67256;51.154;4.164;2023-04-03T16:42:10;4.60;;;1.50;;
76292;SDS011;67256;51.154;4.164;2023-04-03T16:44:36;5.18;;;1.35;;
76292;SDS011;67256;51.154;4.164;2023-04-03T16:47:03;3.85;;;1.30;;
76292;SDS011;67256;51.154;4.164;2023-04-03T16:49:28;2.55;;;1.38;;
76292;SDS011;67256;51.154;4.164;2023-04-03T16:51:58;3.43;;;1.30;;
76292;SDS011;67256;51.154;4.164;2023-04-03T16:54:25;3.22;;;1.48;;
76292;SDS011;67256;51.154;4.164;2023-04-03T16:56:51;3.75;;;1.55;;
76292;SDS011;67256;51.154;4.164;2023-04-03T16:59:17;4.38;;;1.25;;
76292;SDS011;67256;51.154;4.164;2023-04-03T17:01:43;3.05;;;1.40;;